Time;durP1;ratioP1;P1;durP2;ratioP2;P2;SDS_P1;SDS_P2;PMS_P1;PMS_P2;Temp;Humidity;BMP_temperature;BMP_pressure;BME280_temperature;BME280_humidity;BME280_pressure;Samples;Min_cycle;Max_cycle;Signal;HPM_P1;HPM_P2
2023/04/23 00:01:57;;;;;;;63.85;36.92;;;;;;;-145.50;100.00;65435.88;5049473;28;20056;-71
2023/04/23 00:04:25;;;;;;;67.75;38.60;;;;;;;-145.50;100.00;65435.88;5043225;28;20048;-70
2023/04/23 00:06:53;;;;;;;67.55;38.25;;;;;;;-145.50;100.00;65435.88;5040361;28;20250;-71
2023/04/23 00:09:21;;;;;;;68.63;36.00;;;;;;;-145.50;100.00;65435.88;5057566;28;20159;-71
2023/04/23 00:11:48;;;;;;;62.35;35.83;;;;;;;-145.50;100.00;65435.88;5049664;28;20049;-70
2023/04/23 00:14:15;;;;;;;60.25;34.92;;;;;;;-145.50;100.00;65435.88;5041041;28;20063;-71
2023/04/23 00:16:42;;;;;;;58.40;34.13;;;;;;;-145.50;100.00;65435.88;5049737;28;20053;-71
2023/04/23 00:19:08;;;;;;;52.58;31.88;;;;;;;-145.50;100.00;65435.88;5043329;28;20048;-71
2023/04/23 00:21:35;;;;;;;45.83;27.08;;;;;;;-145.50;100.00;65435.88;5058064;28;20246;-71
2023/04/23 00:24:01;;;;;;;48.80;29.50;;;;;;;-145.50;100.00;65435.88;5044134;28;20489;-71
2023/04/23 00:26:28;;;;;;;48.05;29.10;;;;;;;-145.50;100.00;65435.88;5045855;28;20153;-71
2023/04/23 00:28:54;;;;;;;47.28;27.83;;;;;;;-145.50;100.00;65435.88;5060672;28;20128;-71
2023/04/23 00:31:21;;;;;;;48.20;29.55;;;;;;;-145.50;100.00;65435.88;5041620;28;20055;-71
2023/04/23 00:33:48;;;;;;;50.92;30.55;;;;;;;-145.50;100.00;65435.88;5047372;28;20055;-73
2023/04/23 00:36:14;;;;;;;48.47;29.65;;;;;;;-145.50;100.00;65435.88;5034464;28;20057;-73
2023/04/23 00:38:41;;;;;;;56.75;31.75;;;;;;;-145.50;100.00;65435.88;5048150;28;20048;-72
2023/04/23 00:41:07;;;;;;;50.70;30.38;;;;;;;-145.50;100.00;65435.88;5052206;28;20045;-73
2023/04/23 00:43:34;;;;;;;48.65;28.90;;;;;;;-145.50;100.00;65435.88;5043490;28;20132;-70
2023/04/23 00:46:00;;;;;;;50.85;30.90;;;;;;;-145.50;100.00;65435.88;5051672;28;20618;-73
2023/04/23 00:48:27;;;;;;;49.38;28.95;;;;;;;-145.50;100.00;65435.88;5031732;28;20049;-73
2023/04/23 00:50:59;;;;;;;49.47;28.13;;;;;;;-145.50;100.00;65435.88;5057828;28;20056;-70
2023/04/23 00:53:25;;;;;;;43.90;27.75;;;;;;;-145.50;100.00;65435.88;5052420;28;20059;-70
2023/04/23 00:55:52;;;;;;;40.70;25.20;;;;;;;-145.50;100.00;65435.88;5051671;28;20084;-69
2023/04/23 00:58:19;;;;;;;43.60;23.40;;;;;;;-145.50;100.00;65435.88;5026633;28;20121;-70
2023/04/23 01:00:47;;;;;;;41.28;25.02;;;;;;;-145.50;100.00;65435.88;5040796;28;20083;-70
2023/04/23 01:03:17;;;;;;;47.65;27.95;;;;;;;-145.50;100.00;65435.88;5033310;28;20508;-71
2023/04/23 01:05:44;;;;;;;49.13;29.55;;;;;;;-145.50;100.00;65435.88;5044425;28;20131;-69
2023/04/23 01:08:14;;;;;;;54.50;31.08;;;;;;;-145.50;100.00;65435.88;5053269;28;20076;-70
2023/04/23 01:10:44;;;;;;;53.05;29.58;;;;;;;-145.50;100.00;65435.88;5035566;28;20514;-72
2023/04/23 01:13:14;;;;;;;53.45;30.42;;;;;;;-145.50;100.00;65435.88;5041510;28;20083;-72
2023/04/23 01:15:44;;;;;;;50.22;28.60;;;;;;;-145.50;100.00;65435.88;5038093;28;20052;-72
2023/04/23 01:18:11;;;;;;;39.88;24.08;;;;;;;-145.50;100.00;65435.88;5043422;28;20135;-70
2023/04/23 01:20:38;;;;;;;42.03;24.85;;;;;;;-145.50;100.00;65435.88;5049900;28;20049;-71
2023/04/23 01:23:05;;;;;;;43.65;24.88;;;;;;;-145.50;100.00;65435.88;5048063;28;20132;-71
2023/04/23 01:25:31;;;;;;;42.53;25.95;;;;;;;-145.50;100.00;65435.88;5047185;28;20147;-71
2023/04/23 01:27:58;;;;;;;45.20;25.80;;;;;;;-145.50;100.00;65435.88;5049122;28;20072;-71
2023/04/23 01:30:25;;;;;;;45.38;27.05;;;;;;;-145.50;100.00;65435.88;5045294;28;20060;-71
2023/04/23 01:32:55;;;;;;;53.40;29.40;;;;;;;-145.50;100.00;65435.88;5017709;28;20041;-70
2023/04/23 01:35:23;;;;;;;50.30;28.33;;;;;;;-145.50;100.00;65435.88;5030511;28;20053;-71
2023/04/23 01:37:51;;;;;;;50.80;27.43;;;;;;;-145.50;100.00;65435.88;5036956;28;20052;-73
2023/04/23 01:40:18;;;;;;;45.63;25.45;;;;;;;-145.50;100.00;65435.88;5016236;28;20808;-71
2023/04/23 01:42:46;;;;;;;46.50;25.50;;;;;;;-145.50;100.00;65435.88;5044598;28;20055;-73
2023/04/23 01:45:12;;;;;;;39.92;23.73;;;;;;;-145.50;100.00;65435.88;5035234;28;20053;-70
2023/04/23 01:47:40;;;;;;;44.03;24.13;;;;;;;-145.50;100.00;65435.88;5034446;28;20157;-71
2023/04/23 01:50:08;;;;;;;39.28;23.10;;;;;;;-145.50;100.00;65435.88;5025929;28;20545;-70
2023/04/23 01:52:35;;;;;;;47.90;26.27;;;;;;;-145.50;100.00;65435.88;5038968;28;20091;-72
2023/04/23 01:55:02;;;;;;;51.30;28.38;;;;;;;-145.50;100.00;65435.88;5029608;28;20431;-71
2023/04/23 01:57:29;;;;;;;48.13;26.50;;;;;;;-145.50;100.00;65435.88;5027315;28;20045;-70
2023/04/23 02:00:07;;;;;;;48.63;27.65;;;;;;;-145.50;100.00;65435.88;5041100;28;20065;-71
2023/04/23 02:02:34;;;;;;;42.03;25.48;;;;;;;-145.50;100.00;65435.88;5040063;28;20041;-70
2023/04/23 02:05:04;;;;;;;45.63;25.42;;;;;;;-145.50;100.00;65435.88;5040000;28;20685;-71
2023/04/23 02:07:31;;;;;;;42.53;25.23;;;;;;;-145.50;100.00;65435.88;5051169;28;20818;-71
2023/04/23 02:09:58;;;;;;;45.33;26.30;;;;;;;-145.50;100.00;65435.88;5025421;28;20058;-70
2023/04/23 02:12:25;;;;;;;47.10;26.77;;;;;;;-145.50;100.00;65435.88;5044329;28;20441;-70
2023/04/23 02:14:53;;;;;;;47.00;26.17;;;;;;;-145.50;100.00;65435.88;5034780;28;20052;-71
2023/04/23 02:17:21;;;;;;;47.22;26.65;;;;;;;-145.50;100.00;65435.88;5060874;28;20091;-71
2023/04/23 02:19:48;;;;;;;45.10;26.30;;;;;;;-145.50;100.00;65435.88;5047079;28;20056;-70
2023/04/23 02:22:16;;;;;;;48.35;28.30;;;;;;;-145.50;100.00;65435.88;5045375;28;20520;-70
2023/04/23 02:24:43;;;;;;;60.27;30.57;;;;;;;-145.50;100.00;65435.88;5055670;28;20553;-70
2023/04/23 02:27:09;;;;;;;60.10;32.33;;;;;;;-145.50;100.00;65435.88;5037793;28;20053;-67
2023/04/23 02:29:36;;;;;;;54.67;31.17;;;;;;;-145.50;100.00;65435.88;5040113;28;20053;-68
2023/04/23 02:32:03;;;;;;;59.65;32.10;;;;;;;-145.50;100.00;65435.88;5038501;28;20057;-68
2023/04/23 02:34:30;;;;;;;57.85;32.63;;;;;;;-145.50;100.00;65435.88;5053050;28;20052;-67
2023/04/23 02:36:56;;;;;;;59.13;32.10;;;;;;;-145.50;100.00;65435.88;5046437;28;20053;-68
2023/04/23 02:39:23;;;;;;;56.80;32.75;;;;;;;-145.50;100.00;65435.88;5018401;28;20535;-68
2023/04/23 02:41:49;;;;;;;48.95;27.65;;;;;;;-145.50;100.00;65435.88;5042269;28;20080;-68
2023/04/23 02:44:16;;;;;;;52.88;29.40;;;;;;;-145.50;100.00;65435.88;5040995;28;20151;-68
2023/04/23 02:46:42;;;;;;;58.42;32.30;;;;;;;-145.50;100.00;65435.88;5041647;28;20389;-68
2023/04/23 02:49:09;;;;;;;56.20;31.08;;;;;;;-145.50;100.00;65435.88;5037991;28;20053;-68
2023/04/23 02:51:41;;;;;;;57.28;31.05;;;;;;;-145.50;100.00;65435.88;5044800;28;20859;-70
2023/04/23 02:54:08;;;;;;;51.70;28.27;;;;;;;-145.50;100.00;65435.88;5059895;28;20238;-72
2023/04/23 02:56:34;;;;;;;56.78;31.48;;;;;;;-145.50;100.00;65435.88;5016663;28;20111;-71
2023/04/23 02:59:01;;;;;;;50.38;29.27;;;;;;;-145.50;100.00;65435.88;5047781;28;20168;-71
2023/04/23 03:01:27;;;;;;;50.35;29.13;;;;;;;-145.50;100.00;65435.88;5038421;28;20052;-71
2023/04/23 03:03:54;;;;;;;52.75;29.13;;;;;;;-145.50;100.00;65435.88;5048278;28;20146;-72
2023/04/23 03:06:21;;;;;;;50.40;28.50;;;;;;;-145.50;100.00;65435.88;5039166;28;20076;-71
2023/04/23 03:08:47;;;;;;;50.47;28.55;;;;;;;-145.50;100.00;65435.88;5027658;28;20080;-71
2023/04/23 03:11:14;;;;;;;49.63;29.08;;;;;;;-145.50;100.00;65435.88;5052194;28;20060;-71
2023/04/23 03:13:40;;;;;;;50.25;29.50;;;;;;;-145.50;100.00;65435.88;5040126;28;20059;-71
2023/04/23 03:16:07;;;;;;;50.75;28.48;;;;;;;-145.50;100.00;65435.88;5047845;28;20063;-71
2023/04/23 03:18:34;;;;;;;48.65;27.95;;;;;;;-145.50;100.00;65435.88;5043294;28;20048;-71
2023/04/23 03:21:00;;;;;;;46.63;28.13;;;;;;;-145.50;100.00;65435.88;5023166;28;20126;-71
2023/04/23 03:23:27;;;;;;;47.45;27.17;;;;;;;-145.50;100.00;65435.88;5054506;28;20547;-71
2023/04/23 03:25:53;;;;;;;49.88;27.85;;;;;;;-145.50;100.00;65435.88;5041548;28;20397;-71
2023/04/23 03:28:20;;;;;;;49.90;27.83;;;;;;;-145.50;100.00;65435.88;5052519;28;20054;-71
2023/04/23 03:30:47;;;;;;;44.33;24.92;;;;;;;-145.50;100.00;65435.88;5037849;28;20053;-71
2023/04/23 03:33:13;;;;;;;45.83;26.45;;;;;;;-145.50;100.00;65435.88;5051197;28;20513;-71
2023/04/23 03:35:40;;;;;;;44.53;26.25;;;;;;;-145.50;100.00;65435.88;5036977;28;20409;-71
2023/04/23 03:38:06;;;;;;;45.55;26.33;;;;;;;-145.50;100.00;65435.88;5053012;28;20106;-72
2023/04/23 03:40:33;;;;;;;43.55;26.13;;;;;;;-145.50;100.00;65435.88;5031914;28;20055;-71
2023/04/23 03:42:59;;;;;;;49.20;27.98;;;;;;;-145.50;100.00;65435.88;5033406;28;20164;-71
2023/04/23 03:45:26;;;;;;;44.67;26.55;;;;;;;-145.50;100.00;65435.88;5045012;28;20053;-72
2023/04/23 03:47:52;;;;;;;44.90;26.23;;;;;;;-145.50;100.00;65435.88;5031339;28;20081;-71
2023/04/23 03:50:19;;;;;;;47.78;27.33;;;;;;;-145.50;100.00;65435.88;5044997;28;20099;-72
2023/04/23 03:52:45;;;;;;;46.08;26.80;;;;;;;-145.50;100.00;65435.88;5046754;28;20249;-71
2023/04/23 03:55:12;;;;;;;44.83;25.63;;;;;;;-145.50;100.00;65435.88;5027583;28;20075;-71
2023/04/23 03:57:38;;;;;;;50.38;26.35;;;;;;;-145.50;100.00;65435.88;5055296;28;20074;-71
2023/04/23 04:00:07;;;;;;;47.60;27.65;;;;;;;-145.50;100.00;65435.88;5051656;28;20096;-72
2023/04/23 04:02:33;;;;;;;46.85;27.42;;;;;;;-145.50;100.00;65435.88;5045530;28;20040;-71
2023/04/23 04:05:00;;;;;;;44.17;27.15;;;;;;;-145.50;100.00;65435.88;5037325;28;20147;-72
2023/04/23 04:07:28;;;;;;;44.72;27.83;;;;;;;-145.50;100.00;65435.88;5048112;28;20501;-71
2023/04/23 04:09:54;;;;;;;47.80;26.60;;;;;;;-145.50;100.00;65435.88;5046554;28;20040;-70
2023/04/23 04:12:21;;;;;;;45.17;27.48;;;;;;;-145.50;100.00;65435.88;5034317;28;20045;-71
2023/04/23 04:14:47;;;;;;;42.78;26.77;;;;;;;-145.50;100.00;65435.88;5061062;28;20147;-71
2023/04/23 04:17:14;;;;;;;43.20;26.33;;;;;;;-145.50;100.00;65435.88;5043826;28;20053;-71
2023/04/23 04:19:41;;;;;;;47.45;27.95;;;;;;;-145.50;100.00;65435.88;5049563;28;20429;-71
2023/04/23 04:22:08;;;;;;;47.45;27.02;;;;;;;-145.50;100.00;65435.88;5040788;28;20379;-71
2023/04/23 04:24:35;;;;;;;46.05;28.15;;;;;;;-145.50;100.00;65435.88;5058928;28;20153;-71
2023/04/23 04:27:01;;;;;;;45.63;26.75;;;;;;;-145.50;100.00;65435.88;5034697;28;20067;-71
2023/04/23 04:29:28;;;;;;;44.67;26.83;;;;;;;-145.50;100.00;65435.88;5055058;28;20139;-71
2023/04/23 04:31:55;;;;;;;42.38;25.00;;;;;;;-145.50;100.00;65435.88;5057262;28;20095;-71
2023/04/23 04:34:22;;;;;;;37.75;22.15;;;;;;;-145.50;100.00;65435.88;5036280;28;20539;-71
2023/04/23 04:36:50;;;;;;;40.95;24.30;;;;;;;-145.50;100.00;65435.88;5048982;28;20059;-72
2023/04/23 04:39:16;;;;;;;47.72;27.02;;;;;;;-145.50;100.00;65435.88;5036451;28;20049;-71
2023/04/23 04:41:43;;;;;;;42.20;25.38;;;;;;;-145.50;100.00;65435.88;5048229;28;20056;-71
2023/04/23 04:44:10;;;;;;;43.33;25.38;;;;;;;-145.50;100.00;65435.88;5049703;28;20045;-71
2023/04/23 04:46:39;;;;;;;39.08;24.13;;;;;;;-145.50;100.00;65435.88;5035774;28;20045;-71
2023/04/23 04:49:07;;;;;;;43.75;26.70;;;;;;;-145.50;100.00;65435.88;5031192;28;20108;-71
2023/04/23 04:51:35;;;;;;;42.20;26.48;;;;;;;-145.50;100.00;65435.88;5042536;28;20352;-71
2023/04/23 04:54:02;;;;;;;42.95;24.67;;;;;;;-145.50;100.00;65435.88;5050094;28;20602;-71
2023/04/23 04:56:29;;;;;;;43.03;24.98;;;;;;;-145.50;100.00;65435.88;5045526;28;20057;-71
2023/04/23 04:58:56;;;;;;;38.38;23.13;;;;;;;-145.50;100.00;65435.88;5047473;28;20056;-71
2023/04/23 05:01:24;;;;;;;47.08;27.33;;;;;;;-145.50;100.00;65435.88;5055286;28;20056;-72
2023/04/23 05:03:51;;;;;;;39.72;22.40;;;;;;;-145.50;100.00;65435.88;5055457;28;20053;-71
2023/04/23 05:06:18;;;;;;;44.15;26.10;;;;;;;-145.50;100.00;65435.88;5063504;28;20059;-71
2023/04/23 05:08:47;;;;;;;46.55;27.50;;;;;;;-145.50;100.00;65435.88;5060570;28;20025;-71
2023/04/23 05:11:15;;;;;;;35.45;22.80;;;;;;;-145.50;100.00;65435.88;5058980;28;20059;-71
2023/04/23 05:13:43;;;;;;;44.05;26.92;;;;;;;-145.50;100.00;65435.88;5056836;28;20485;-71
2023/04/23 05:16:10;;;;;;;42.83;26.53;;;;;;;-145.50;100.00;65435.88;5051278;28;20147;-71
2023/04/23 05:18:38;;;;;;;40.93;25.73;;;;;;;-145.50;100.00;65435.88;5059728;28;20052;-71
2023/04/23 05:21:05;;;;;;;44.22;25.20;;;;;;;-145.50;100.00;65435.88;5045414;28;20056;-71
2023/04/23 05:23:32;;;;;;;32.85;20.45;;;;;;;-145.50;100.00;65435.88;5060823;28;20048;-72
2023/04/23 05:25:59;;;;;;;39.55;22.95;;;;;;;-145.50;100.00;65435.88;5049650;28;20056;-71
2023/04/23 05:28:25;;;;;;;39.05;24.25;;;;;;;-145.50;100.00;65435.88;5028587;28;20080;-72
2023/04/23 05:30:52;;;;;;;41.67;24.77;;;;;;;-145.50;100.00;65435.88;5043916;28;20049;-72
2023/04/23 05:33:18;;;;;;;42.00;25.40;;;;;;;-145.50;100.00;65435.88;5044464;28;20050;-72
2023/04/23 05:35:45;;;;;;;39.10;24.38;;;;;;;-145.50;100.00;65435.88;5046440;28;20124;-72
2023/04/23 05:38:11;;;;;;;38.28;24.45;;;;;;;-145.50;100.00;65435.88;5043804;28;20063;-72
2023/04/23 05:40:38;;;;;;;39.22;25.63;;;;;;;-145.50;100.00;65435.88;5054526;28;20051;-72
2023/04/23 05:43:05;;;;;;;37.83;24.30;;;;;;;-145.50;100.00;65435.88;5035993;28;20053;-72
2023/04/23 05:45:31;;;;;;;39.88;24.55;;;;;;;-145.50;100.00;65435.88;5039293;28;20107;-72
2023/04/23 05:47:58;;;;;;;40.08;24.73;;;;;;;-145.50;100.00;65435.88;5048154;28;20140;-74
2023/04/23 05:50:25;;;;;;;38.22;24.08;;;;;;;-145.50;100.00;65435.88;5042381;28;20045;-73
2023/04/23 05:52:52;;;;;;;37.78;24.45;;;;;;;-145.50;100.00;65435.88;5051065;28;20554;-73
2023/04/23 05:55:22;;;;;;;36.10;23.75;;;;;;;-145.50;100.00;65435.88;5025440;28;20048;-72
2023/04/23 05:57:49;;;;;;;38.47;23.77;;;;;;;-145.50;100.00;65435.88;5042653;28;20068;-72
2023/04/23 06:00:16;;;;;;;36.15;22.08;;;;;;;-145.50;100.00;65435.88;5059549;28;20056;-71
2023/04/23 06:02:43;;;;;;;28.50;19.50;;;;;;;-145.50;100.00;65435.88;5038037;28;20160;-71
2023/04/23 06:05:09;;;;;;;29.77;19.50;;;;;;;-145.50;100.00;65435.88;5038513;28;20048;-72
2023/04/23 06:07:37;;;;;;;31.50;21.42;;;;;;;-145.50;100.00;65435.88;5049125;28;20143;-72
2023/04/23 06:10:04;;;;;;;26.08;17.90;;;;;;;-145.50;100.00;65435.88;5044226;28;20104;-72
2023/04/23 06:12:31;;;;;;;28.50;19.35;;;;;;;-145.50;100.00;65435.88;5033410;28;20261;-71
2023/04/23 06:14:57;;;;;;;30.67;20.52;;;;;;;-145.50;100.00;65435.88;5062299;28;20505;-72
2023/04/23 06:17:24;;;;;;;25.08;17.80;;;;;;;-145.50;100.00;65435.88;5052791;28;20158;-72
2023/04/23 06:19:51;;;;;;;25.90;16.92;;;;;;;-145.50;100.00;65435.88;5049380;28;20061;-72
2023/04/23 06:22:17;;;;;;;24.65;17.90;;;;;;;-145.50;100.00;65435.88;5057705;28;20050;-72
2023/04/23 06:24:44;;;;;;;20.83;14.13;;;;;;;-145.50;100.00;65435.88;5050492;28;20112;-71
2023/04/23 06:27:10;;;;;;;25.23;19.05;;;;;;;-145.50;100.00;65435.88;5051982;28;20052;-71
2023/04/23 06:29:37;;;;;;;25.67;17.85;;;;;;;-145.50;100.00;65435.88;5053159;28;20066;-72
2023/04/23 06:32:03;;;;;;;25.88;17.83;;;;;;;-145.50;100.00;65435.88;5045851;28;20049;-73
2023/04/23 06:34:30;;;;;;;25.05;18.00;;;;;;;-145.50;100.00;65435.88;5052126;28;20138;-72
2023/04/23 06:36:56;;;;;;;25.17;17.67;;;;;;;-145.50;100.00;65435.88;5049356;28;20448;-72
2023/04/23 06:39:23;;;;;;;20.23;16.55;;;;;;;-145.50;100.00;65435.88;5048604;28;20051;-71
2023/04/23 06:41:49;;;;;;;24.15;16.13;;;;;;;-145.50;100.00;65435.88;5031799;28;20545;-72
2023/04/23 06:44:16;;;;;;;24.38;15.52;;;;;;;-145.50;100.00;65435.88;5039156;28;20413;-72
2023/04/23 06:46:42;;;;;;;18.58;14.07;;;;;;;-145.50;100.00;65435.88;5051200;28;20036;-72
2023/04/23 06:49:09;;;;;;;23.95;15.63;;;;;;;-145.50;100.00;65435.88;5049093;28;20049;-71
2023/04/23 06:51:35;;;;;;;24.05;16.13;;;;;;;-145.50;100.00;65435.88;5045652;28;20123;-72
2023/04/23 06:54:02;;;;;;;20.77;15.05;;;;;;;-145.50;100.00;65435.88;5034606;28;20056;-72
2023/04/23 06:56:29;;;;;;;19.83;15.07;;;;;;;-145.50;100.00;65435.88;5046642;28;20048;-72
2023/04/23 06:58:55;;;;;;;20.45;14.82;;;;;;;-145.50;100.00;65435.88;5041286;28;20417;-71
2023/04/23 07:01:22;;;;;;;19.55;15.25;;;;;;;-145.50;100.00;65435.88;5049907;28;20106;-71
2023/04/23 07:03:51;;;;;;;20.35;15.18;;;;;;;-145.50;100.00;65435.88;5051140;28;20045;-71
2023/04/23 07:06:17;;;;;;;20.40;14.90;;;;;;;-145.50;100.00;65435.88;5043532;28;20542;-71
2023/04/23 07:08:44;;;;;;;19.88;15.32;;;;;;;-145.50;100.00;65435.88;5048477;28;20053;-73
2023/04/23 07:11:11;;;;;;;22.52;15.43;;;;;;;-145.50;100.00;65435.88;5033370;28;20122;-72
2023/04/23 07:13:38;;;;;;;24.08;16.05;;;;;;;-145.50;100.00;65435.88;5029507;28;20041;-71
2023/04/23 07:16:05;;;;;;;20.42;14.48;;;;;;;-145.50;100.00;65435.88;5050290;28;20052;-73
2023/04/23 07:18:32;;;;;;;21.30;14.93;;;;;;;-145.50;100.00;65435.88;5051532;28;20088;-73
2023/04/23 07:20:59;;;;;;;22.25;15.57;;;;;;;-145.50;100.00;65435.88;5057987;28;20383;-71
2023/04/23 07:23:28;;;;;;;20.42;15.57;;;;;;;-145.50;100.00;65435.88;5030264;28;20053;-72
2023/04/23 07:25:55;;;;;;;19.63;14.45;;;;;;;-145.50;100.00;65435.88;5029062;28;20581;-71
2023/04/23 07:28:21;;;;;;;16.10;13.00;;;;;;;-145.50;100.00;65435.88;5036277;28;20103;-71
2023/04/23 07:30:48;;;;;;;17.48;13.88;;;;;;;-145.50;100.00;65435.88;5051910;28;20108;-71
2023/04/23 07:33:14;;;;;;;15.85;12.73;;;;;;;-145.50;100.00;65435.88;5034980;28;20056;-71
2023/04/23 07:35:41;;;;;;;18.80;14.38;;;;;;;-145.50;100.00;65435.88;5056330;28;20135;-71
2023/04/23 07:38:07;;;;;;;16.10;13.18;;;;;;;-145.50;100.00;65435.88;5041002;28;20044;-72
2023/04/23 07:40:35;;;;;;;16.35;12.93;;;;;;;-145.50;100.00;65435.88;5040296;28;20049;-72
2023/04/23 07:43:02;;;;;;;18.60;12.55;;;;;;;-145.50;100.00;65435.88;5035935;28;20377;-71
2023/04/23 07:45:29;;;;;;;18.00;12.18;;;;;;;-145.50;100.00;65435.88;5035835;28;20136;-72
2023/04/23 07:47:57;;;;;;;14.88;12.18;;;;;;;-145.50;100.00;65435.88;5043581;28;20056;-72
2023/04/23 07:50:24;;;;;;;18.42;11.50;;;;;;;-145.50;100.00;65435.88;5039522;28;20056;-72
2023/04/23 07:52:51;;;;;;;17.23;11.60;;;;;;;-145.50;100.00;65435.88;5037120;28;20048;-73
2023/04/23 07:55:19;;;;;;;16.05;11.55;;;;;;;-145.50;100.00;65435.88;5043963;28;20510;-73
2023/04/23 07:57:45;;;;;;;16.55;11.23;;;;;;;-145.50;100.00;65435.88;5034376;28;20065;-73
2023/04/23 08:00:13;;;;;;;16.70;11.45;;;;;;;-145.50;100.00;65435.88;5043127;28;20064;-72
2023/04/23 08:02:39;;;;;;;14.57;10.35;;;;;;;-145.50;100.00;65435.88;5047715;28;20148;-72
2023/04/23 08:05:07;;;;;;;17.42;10.02;;;;;;;-145.50;100.00;65435.88;5044930;28;20288;-73
2023/04/23 08:07:33;;;;;;;14.57;10.88;;;;;;;-145.50;100.00;65435.88;5033287;28;20398;-72
2023/04/23 08:10:04;;;;;;;16.17;9.68;;;;;;;-145.50;100.00;65435.88;5050084;28;20063;-72
2023/04/23 08:12:34;;;;;;;14.07;8.80;;;;;;;-145.50;100.00;65435.88;5041739;28;20525;-73
2023/04/23 08:15:02;;;;;;;16.05;9.00;;;;;;;-145.50;100.00;65435.88;5048876;28;20059;-72
2023/04/23 08:17:28;;;;;;;12.05;8.75;;;;;;;-145.50;100.00;65435.88;5048287;28;20128;-73
2023/04/23 08:19:55;;;;;;;13.88;8.93;;;;;;;-145.50;100.00;65435.88;5038988;28;20068;-73
2023/04/23 08:22:21;;;;;;;11.88;8.20;;;;;;;-145.50;100.00;65435.88;5044315;28;20447;-73
2023/04/23 08:24:48;;;;;;;12.52;7.75;;;;;;;-145.50;100.00;65435.88;5044931;28;20545;-73
2023/04/23 08:27:14;;;;;;;14.68;9.07;;;;;;;-145.50;100.00;65435.88;5052431;28;20056;-73
2023/04/23 08:29:41;;;;;;;11.82;7.93;;;;;;;-145.50;100.00;65435.88;5058104;28;20052;-73
2023/04/23 08:32:07;;;;;;;12.23;8.00;;;;;;;-145.50;100.00;65435.88;5021004;28;20136;-73
2023/04/23 08:34:34;;;;;;;13.50;7.97;;;;;;;-145.50;100.00;65435.88;5054546;28;20139;-73
2023/04/23 08:37:01;;;;;;;10.40;7.78;;;;;;;-145.50;100.00;65435.88;5036942;28;20136;-74
2023/04/23 08:39:31;;;;;;;12.35;7.93;;;;;;;-145.50;100.00;65435.88;5048567;28;20556;-74
2023/04/23 08:42:10;;;;;;;12.35;6.85;;;;;;;-145.50;100.00;65435.88;5058565;28;20088;-73
2023/04/23 08:44:41;;;;;;;10.55;7.20;;;;;;;-145.50;100.00;65435.88;5043814;28;20049;-73
2023/04/23 08:47:11;;;;;;;10.23;7.55;;;;;;;-145.50;100.00;65435.88;5051709;28;20053;-74
2023/04/23 08:49:40;;;;;;;10.30;6.57;;;;;;;-145.50;100.00;65435.88;5025360;28;20085;-74
2023/04/23 08:52:17;;;;;;;9.50;6.13;;;;;;;-145.50;100.00;65435.88;5031520;28;20056;-74
2023/04/23 08:54:47;;;;;;;8.70;5.70;;;;;;;-145.50;100.00;65435.88;5022100;28;20421;-74
2023/04/23 08:57:16;;;;;;;7.68;5.75;;;;;;;-145.50;100.00;65435.88;5044193;28;20055;-74
2023/04/23 08:59:43;;;;;;;12.20;5.57;;;;;;;-145.50;100.00;65435.88;5030884;28;20139;-74
2023/04/23 09:02:10;;;;;;;10.63;5.43;;;;;;;-145.50;100.00;65435.88;5048995;28;20544;-74
2023/04/23 09:04:37;;;;;;;10.40;5.00;;;;;;;-145.50;100.00;65435.88;5045792;28;20056;-73
2023/04/23 09:07:06;;;;;;;12.20;4.80;;;;;;;-145.50;100.00;65435.88;5046152;28;20053;-75
2023/04/23 09:09:34;;;;;;;8.43;4.25;;;;;;;-145.50;100.00;65435.88;5028674;28;20106;-74
2023/04/23 09:12:01;;;;;;;8.77;3.85;;;;;;;-145.50;100.00;65435.88;5046031;28;20056;-74
2023/04/23 09:14:27;;;;;;;9.23;4.40;;;;;;;-145.50;100.00;65435.88;5031928;28;20392;-73
2023/04/23 09:16:54;;;;;;;9.07;3.95;;;;;;;-145.50;100.00;65435.88;5040174;28;20179;-71
2023/04/23 09:19:21;;;;;;;8.55;3.83;;;;;;;-145.50;100.00;65435.88;5044638;28;20057;-75
2023/04/23 09:21:48;;;;;;;7.35;3.60;;;;;;;-145.50;100.00;65435.88;5046824;28;20049;-74
2023/04/23 09:24:16;;;;;;;8.85;3.47;;;;;;;-145.50;100.00;65435.88;5039340;28;20049;-75
2023/04/23 09:26:45;;;;;;;8.25;3.13;;;;;;;-145.50;100.00;65435.88;5046410;28;20122;-75
2023/04/23 09:29:16;;;;;;;8.85;3.20;;;;;;;-145.50;100.00;65435.88;5034304;28;20078;-74
2023/04/23 09:32:03;;;;;;;6.30;3.03;;;;;;;-145.50;100.00;65435.88;5050491;28;20425;-75
2023/04/23 09:34:34;;;;;;;12.57;3.83;;;;;;;-145.50;100.00;65435.88;5034754;28;20079;-74
2023/04/23 09:37:02;;;;;;;7.47;3.08;;;;;;;-145.50;100.00;65435.88;5048892;28;20981;-73
2023/04/23 09:39:29;;;;;;;10.50;3.15;;;;;;;-145.50;100.00;65435.88;5054178;28;20511;-73
2023/04/23 09:42:03;;;;;;;9.90;3.47;;;;;;;-145.50;100.00;65435.88;5048026;28;20055;-74
2023/04/23 09:44:33;;;;;;;8.18;2.97;;;;;;;-145.50;100.00;65435.88;5042182;28;20136;-73
2023/04/23 09:47:10;;;;;;;6.53;2.50;;;;;;;-145.50;100.00;65435.88;5037601;28;20056;-74
2023/04/23 09:49:48;;;;;;;8.20;2.88;;;;;;;-145.50;100.00;65435.88;5051467;28;20056;-74
2023/04/23 09:52:15;;;;;;;10.65;2.60;;;;;;;-145.50;100.00;65435.88;5042498;28;20048;-73
2023/04/23 09:54:43;;;;;;;12.68;2.80;;;;;;;-145.50;100.00;65435.88;5050582;28;20041;-72
2023/04/23 09:57:10;;;;;;;8.83;2.40;;;;;;;-145.50;100.00;65435.88;5042850;28;20286;-73
2023/04/23 09:59:37;;;;;;;8.40;2.17;;;;;;;-145.50;100.00;65435.88;5028967;28;20054;-73
2023/04/23 10:02:17;;;;;;;11.52;2.85;;;;;;;-145.50;100.00;65435.88;5046012;28;20052;-74
2023/04/23 10:04:51;;;;;;;10.50;2.77;;;;;;;-145.50;100.00;65435.88;5041814;28;20485;-74
2023/04/23 10:07:23;;;;;;;9.63;2.33;;;;;;;-145.50;100.00;65435.88;5046286;28;20091;-73
2023/04/23 10:09:50;;;;;;;10.32;2.05;;;;;;;-145.50;100.00;65435.88;5036524;28;20128;-74
2023/04/23 10:12:18;;;;;;;7.95;2.08;;;;;;;-145.50;100.00;65435.88;5041608;28;20056;-74
2023/04/23 10:15:06;;;;;;;7.60;1.85;;;;;;;-145.50;100.00;65435.88;5046850;28;20048;-73
2023/04/23 10:17:34;;;;;;;7.47;1.93;;;;;;;-145.50;100.00;65435.88;5023298;28;20135;-73
2023/04/23 10:20:02;;;;;;;8.55;2.22;;;;;;;-145.50;100.00;65435.88;5043901;28;20061;-73
2023/04/23 10:22:29;;;;;;;8.57;1.93;;;;;;;-145.50;100.00;65435.88;5026050;28;20076;-74
2023/04/23 10:24:59;;;;;;;8.57;2.20;;;;;;;-145.50;100.00;65435.88;5059317;28;20285;-73
2023/04/23 10:27:28;;;;;;;5.80;1.85;;;;;;;-145.50;100.00;65435.88;5031281;28;20072;-75
2023/04/23 10:30:15;;;;;;;6.53;1.75;;;;;;;-145.50;100.00;65435.88;5031285;28;20056;-75
2023/04/23 10:32:43;;;;;;;4.88;1.40;;;;;;;-145.50;100.00;65435.88;5031930;28;20497;-74
2023/04/23 10:35:10;;;;;;;12.48;2.60;;;;;;;-145.50;100.00;65435.88;5047322;28;20049;-74
2023/04/23 10:37:37;;;;;;;5.88;1.70;;;;;;;-145.50;100.00;65435.88;5053821;28;20519;-75
2023/04/23 10:40:17;;;;;;;5.13;1.60;;;;;;;-145.50;100.00;65435.88;5045843;28;20053;-73
2023/04/23 10:42:45;;;;;;;4.78;1.20;;;;;;;-145.50;100.00;65435.88;5019245;28;20226;-75
2023/04/23 10:45:20;;;;;;;7.63;1.80;;;;;;;-145.50;100.00;65435.88;5040824;28;20428;-75
2023/04/23 10:47:52;;;;;;;7.00;1.65;;;;;;;-145.50;100.00;65435.88;5045638;28;20092;-74
2023/04/23 10:50:27;;;;;;;9.68;1.90;;;;;;;-145.50;100.00;65435.88;5045855;28;20481;-74
2023/04/23 10:52:56;;;;;;;5.30;1.40;;;;;;;-145.50;100.00;65435.88;5045064;28;20088;-75
2023/04/23 10:55:28;;;;;;;6.50;1.92;;;;;;;-145.50;100.00;65435.88;5043483;28;20164;-74
2023/04/23 10:57:57;;;;;;;9.45;2.05;;;;;;;-145.50;100.00;65435.88;5037490;28;20060;-75
2023/04/23 11:00:29;;;;;;;7.35;1.23;;;;;;;-145.50;100.00;65435.88;5049803;28;20061;-74